createdAt,value
2022-08-05T00:02:21.819Z,67.00
2022-08-05T00:08:00.621Z,67.70
2022-08-05T00:12:56.812Z,67.60
2022-08-05T00:17:59.548Z,67.80
2022-08-05T00:23:13.010Z,67.80
2022-08-05T00:28:16.588Z,68.10
2022-08-05T00:34:55.585Z,68.90
2022-08-05T00:38:55.847Z,68.80
2022-08-05T00:44:02.528Z,69.20
2022-08-05T00:49:05.370Z,69.60
2022-08-05T00:54:14.993Z,69.40
2022-08-05T00:59:19.764Z,69.70
2022-08-05T01:04:26.643Z,71.30
2022-08-05T01:09:30.479Z,71.20
2022-08-05T01:14:48.753Z,72.30
2022-08-05T01:20:02.184Z,72.30
2022-08-05T01:25:40.907Z,72.60
2022-08-05T01:30:57.342Z,73.30
2022-08-05T01:36:03.491Z,74.30
2022-08-05T01:41:08.991Z,75.20
2022-08-05T01:46:16.462Z,76.00
2022-08-05T01:51:37.143Z,76.70
2022-08-05T01:58:09.773Z,77.70
2022-08-05T02:02:06.881Z,77.90
2022-08-05T02:07:21.698Z,77.80
2022-08-05T02:12:58.335Z,77.10
2022-08-05T02:18:32.728Z,77.80
2022-08-05T02:23:40.028Z,76.70
2022-08-05T02:28:45.896Z,76.70
2022-08-05T02:34:09.945Z,76.80
2022-08-05T02:39:15.706Z,76.70
2022-08-05T02:44:25.811Z,77.80
2022-08-05T02:49:40.375Z,77.80
2022-08-05T02:54:52.165Z,78.40
2022-08-05T02:59:55.619Z,78.70
2022-08-05T03:04:59.220Z,79.10
2022-08-05T03:10:02.123Z,79.50
2022-08-05T03:15:07.489Z,80.10
2022-08-05T03:20:13.410Z,80.00
2022-08-05T03:25:33.445Z,79.40
2022-08-05T03:30:41.269Z,79.40
2022-08-05T03:35:46.776Z,80.60
2022-08-05T03:40:49.881Z,79.80
2022-08-05T03:45:58.055Z,80.20
2022-08-05T03:52:37.938Z,79.80
2022-08-05T03:56:46.316Z,80.00
2022-08-05T04:01:51.166Z,79.60
2022-08-05T04:06:55.132Z,79.60
2022-08-05T04:11:59.214Z,79.60
2022-08-05T04:17:03.034Z,79.10
2022-08-05T04:22:11.312Z,79.20
2022-08-05T04:27:19.849Z,79.40
2022-08-05T04:32:37.736Z,79.30
2022-08-05T04:38:01.391Z,80.00
2022-08-05T04:43:04.560Z,79.20
2022-08-05T04:48:16.430Z,79.00
2022-08-05T04:53:33.545Z,78.90
2022-08-05T04:58:37.992Z,78.60
2022-08-05T05:03:42.341Z,78.00
2022-08-05T05:08:45.342Z,78.00
2022-08-05T05:13:52.781Z,77.60
2022-08-05T05:19:19.546Z,76.60
2022-08-05T05:24:21.812Z,77.00
2022-08-05T05:29:24.410Z,73.90
2022-08-05T05:34:46.877Z,73.60
2022-08-05T05:39:49.510Z,72.60
2022-08-05T05:44:52.059Z,72.50
2022-08-05T05:50:02.172Z,71.90
2022-08-05T05:55:13.615Z,70.90
2022-08-05T06:00:19.334Z,71.40
2022-08-05T06:05:22.273Z,70.60
2022-08-05T06:10:25.013Z,70.10
2022-08-05T06:16:29.109Z,70.20
2022-08-05T06:20:54.619Z,69.60
2022-08-05T06:26:13.405Z,69.60
2022-08-05T06:31:22.066Z,69.20
2022-08-05T06:36:25.833Z,68.80
2022-08-05T06:41:28.677Z,68.20
2022-08-05T06:46:37.751Z,68.50
2022-08-05T06:51:41.035Z,67.50
2022-08-05T06:56:55.127Z,65.80
2022-08-05T07:02:07.325Z,67.70
2022-08-05T07:07:09.921Z,66.20
2022-08-05T07:12:32.380Z,65.90
2022-08-05T07:17:58.539Z,67.10
2022-08-05T07:22:57.324Z,64.20
2022-08-05T07:28:04.252Z,65.30
2022-08-05T07:33:16.113Z,66.10
2022-08-05T07:38:32.036Z,63.80
2022-08-05T07:43:37.207Z,63.50
2022-08-05T07:49:01.586Z,62.60
2022-08-05T07:54:02.429Z,62.40
2022-08-05T07:59:05.015Z,61.30
2022-08-05T08:04:11.409Z,61.20
2022-08-05T08:09:14.286Z,61.00
2022-08-05T08:14:19.160Z,60.30
2022-08-05T08:20:22.669Z,60.30
2022-08-05T08:24:51.848Z,60.50
2022-08-05T08:30:05.096Z,61.10
2022-08-05T08:35:17.293Z,59.20
2022-08-05T08:40:21.966Z,60.50
2022-08-05T08:45:29.600Z,59.90
2022-08-05T08:51:03.411Z,59.10
2022-08-05T08:56:05.105Z,58.80
2022-08-05T09:01:15.602Z,59.00
2022-08-05T09:06:21.133Z,58.20
2022-08-05T09:11:50.910Z,57.30
2022-08-05T09:16:48.693Z,58.10
2022-08-05T09:22:22.998Z,57.20
2022-08-05T09:28:04.081Z,57.50
2022-08-05T09:33:02.383Z,56.30
2022-08-05T09:38:12.009Z,56.30
2022-08-05T09:43:40.820Z,56.30
2022-08-05T09:49:07.002Z,55.00
2022-08-05T09:54:09.290Z,55.10
2022-08-05T09:59:16.959Z,54.00
2022-08-05T10:04:29.203Z,52.30
2022-08-05T10:09:44.930Z,51.90
2022-08-05T10:14:48.435Z,51.40
2022-08-05T10:20:04.361Z,51.80
2022-08-05T10:25:14.217Z,51.00
2022-08-05T10:31:20.751Z,50.70
2022-08-05T10:35:40.684Z,49.30
2022-08-05T10:40:49.949Z,49.00
2022-08-05T10:46:23.748Z,48.80
2022-08-05T10:51:53.107Z,48.50
2022-08-05T10:57:03.057Z,47.10
2022-08-05T11:02:14.100Z,48.60
2022-08-05T11:07:19.063Z,47.50
2022-08-05T11:12:42.200Z,47.50
2022-08-05T11:17:59.519Z,46.30
2022-08-05T11:24:02.633Z,45.80
2022-08-05T11:29:13.838Z,45.30
2022-08-05T11:34:39.752Z,43.60
2022-08-05T11:39:55.596Z,42.90
2022-08-05T11:45:14.529Z,41.60
2022-08-05T11:50:37.428Z,39.40
2022-08-05T11:55:57.793Z,38.90
2022-08-05T12:01:10.683Z,40.10
2022-08-05T12:06:15.254Z,38.80
2022-08-05T12:11:40.392Z,38.60
2022-08-05T12:16:47.427Z,38.10
2022-08-05T12:21:50.979Z,36.60
2022-08-05T12:26:58.657Z,36.60
2022-08-05T12:32:02.092Z,36.00
2022-08-05T12:37:17.427Z,35.40
2022-08-05T12:42:25.386Z,34.50
2022-08-05T12:47:30.418Z,32.70
2022-08-05T12:52:41.668Z,31.70
2022-08-05T12:58:48.951Z,31.60
2022-08-05T13:03:08.557Z,31.00
2022-08-05T13:08:18.470Z,30.10
2022-08-05T13:14:06.783Z,29.30
2022-08-05T13:18:58.428Z,29.30
2022-08-05T13:24:01.669Z,28.80
2022-08-05T13:29:06.942Z,26.70
2022-08-05T13:34:22.157Z,26.00
2022-08-05T13:40:16.811Z,25.50
2022-08-05T13:44:55.130Z,26.20
2022-08-05T13:49:58.166Z,25.30
2022-08-05T13:55:01.207Z,25.80
2022-08-05T14:00:04.410Z,25.10
2022-08-05T14:05:12.038Z,25.00
2022-08-05T14:10:28.044Z,24.20
2022-08-05T14:16:09.179Z,24.30
2022-08-05T14:20:54.821Z,23.70
2022-08-05T14:25:58.477Z,23.70
2022-08-05T14:31:01.951Z,23.30
2022-08-05T14:36:05.164Z,23.70
2022-08-05T14:41:08.188Z,24.00
2022-08-05T14:46:11.145Z,23.30
2022-08-05T14:51:16.113Z,23.30
2022-08-05T14:56:22.619Z,23.90
2022-08-05T15:01:48.115Z,25.00
2022-08-05T15:06:49.766Z,24.70
2022-08-05T15:11:53.742Z,23.90
2022-08-05T15:16:56.260Z,24.00
2022-08-05T15:22:01.269Z,24.20
2022-08-05T15:27:04.201Z,26.70
2022-08-05T15:32:11.710Z,28.40
2022-08-05T15:38:32.905Z,27.50
2022-08-05T15:42:54.091Z,26.30
2022-08-05T15:47:59.184Z,25.60
2022-08-05T15:53:06.404Z,28.00
2022-08-05T15:58:16.698Z,29.80
2022-08-05T16:03:20.550Z,30.80
2022-08-05T16:08:24.041Z,32.00
2022-08-05T16:13:34.793Z,33.20
2022-08-05T16:18:51.872Z,34.60
2022-08-05T16:23:58.036Z,36.70
2022-08-05T16:29:04.133Z,40.00
2022-08-05T16:34:10.856Z,41.90
2022-08-05T16:39:13.888Z,42.30
2022-08-05T16:44:18.080Z,42.20
2022-08-05T16:49:24.122Z,42.60
2022-08-05T16:54:31.830Z,44.50
2022-08-05T16:59:35.455Z,46.10
2022-08-05T17:04:57.890Z,47.20
2022-08-05T17:10:00.427Z,49.00
2022-08-05T17:15:05.946Z,50.30
2022-08-05T17:20:14.679Z,50.40
2022-08-05T17:25:33.432Z,50.70
2022-08-05T17:30:42.394Z,54.40
2022-08-05T17:36:08.110Z,62.40
2022-08-05T17:42:16.814Z,64.30
2022-08-05T17:46:35.658Z,60.40
2022-08-05T17:51:40.393Z,59.40
2022-08-05T17:56:44.651Z,58.10
2022-08-05T18:01:51.455Z,58.40
2022-08-05T18:06:54.087Z,58.80
2022-08-05T18:12:02.945Z,59.30
2022-08-05T18:17:06.607Z,59.70
2022-08-05T18:22:46.018Z,60.20
2022-08-05T18:27:52.203Z,61.00
2022-08-05T18:33:00.325Z,61.60
2022-08-05T18:38:03.734Z,62.70
2022-08-05T18:43:08.889Z,63.70
2022-08-05T18:48:31.171Z,64.70
2022-08-05T18:53:43.124Z,65.90
2022-08-05T18:58:54.967Z,67.10
2022-08-05T19:04:05.341Z,68.70
2022-08-05T19:09:08.156Z,69.70
2022-08-05T19:14:38.104Z,70.30
2022-08-05T19:19:33.122Z,71.10
2022-08-05T19:24:37.140Z,71.70
2022-08-05T19:29:57.858Z,72.60
2022-08-05T19:35:00.617Z,73.50
2022-08-05T19:40:10.462Z,74.00
2022-08-05T19:45:14.550Z,74.60
2022-08-05T19:50:17.242Z,75.30
2022-08-05T19:56:14.202Z,75.90
2022-08-05T20:00:42.711Z,76.50
2022-08-05T20:05:51.360Z,77.40
2022-08-05T20:10:55.266Z,78.20
2022-08-05T20:15:58.016Z,79.60
2022-08-05T20:21:04.733Z,91.20
2022-08-05T20:26:07.974Z,99.90
2022-08-05T20:31:21.402Z,99.90
2022-08-05T20:36:25.936Z,99.90
2022-08-05T20:41:44.420Z,99.90
2022-08-05T20:46:48.185Z,99.90
2022-08-05T20:51:53.354Z,99.90
2022-08-05T20:56:57.323Z,99.90
2022-08-05T21:01:59.987Z,99.90
2022-08-05T21:07:02.664Z,99.90
2022-08-05T21:12:10.242Z,99.90
2022-08-05T21:17:14.270Z,99.90
2022-08-05T21:22:18.246Z,99.90
2022-08-05T21:27:25.000Z,99.90
2022-08-05T21:32:30.034Z,99.90
2022-08-05T21:37:35.007Z,99.90
2022-08-05T21:42:44.788Z,99.90
2022-08-05T21:47:56.172Z,99.90
2022-08-05T21:53:04.496Z,99.90
2022-08-05T21:58:11.693Z,99.90
2022-08-05T22:03:15.361Z,99.90
2022-08-05T22:08:24.011Z,99.90
2022-08-05T22:14:34.176Z,99.90
2022-08-05T22:18:49.384Z,99.90
2022-08-05T22:24:13.260Z,99.90
2022-08-05T22:29:33.205Z,99.90
2022-08-05T22:34:35.801Z,99.90
2022-08-05T22:39:39.031Z,99.90
2022-08-05T22:44:48.213Z,99.90
2022-08-05T22:50:20.932Z,99.90
2022-08-05T22:55:21.423Z,99.90
2022-08-05T23:00:24.378Z,99.90
2022-08-05T23:05:29.061Z,99.90
2022-08-05T23:10:38.633Z,99.90
2022-08-05T23:15:41.500Z,99.90
2022-08-05T23:20:45.492Z,99.90
2022-08-05T23:25:54.854Z,99.90
2022-08-05T23:31:16.247Z,99.90
2022-08-05T23:36:20.243Z,99.90
2022-08-05T23:41:22.827Z,99.90
2022-08-05T23:46:26.484Z,99.90
2022-08-05T23:51:54.007Z,99.90
2022-08-05T23:57:04.148Z,99.90
